sensor_id;sensor_type;location;lat;lon;timestamp;P1;durP1;ratioP1;P2;durP2;ratioP2
12556;SDS011;6344;49.932;8.308;2023-06-22T00:02:00;8.80;;;8.10;;
12556;SDS011;6344;49.932;8.308;2023-06-22T00:04:27;9.33;;;8.73;;
12556;SDS011;6344;49.932;8.308;2023-06-22T00:06:54;9.50;;;8.80;;
12556;SDS011;6344;49.932;8.308;2023-06-22T00:09:20;9.73;;;9.13;;
12556;SDS011;6344;49.932;8.308;2023-06-22T00:11:47;9.70;;;9.00;;
12556;SDS011;6344;49.932;8.308;2023-06-22T00:14:15;9.40;;;8.60;;
12556;SDS011;6344;49.932;8.308;2023-06-22T00:16:41;9.30;;;8.60;;
12556;SDS011;6344;49.932;8.308;2023-06-22T00:19:08;8.90;;;8.30;;
12556;SDS011;6344;49.932;8.308;2023-06-22T00:21:36;9.67;;;8.90;;
12556;SDS011;6344;49.932;8.308;2023-06-22T00:24:04;9.60;;;8.97;;
12556;SDS011;6344;49.932;8.308;2023-06-22T00:26:31;10.93;;;10.03;;
12556;SDS011;6344;49.932;8.308;2023-06-22T00:28:58;10.30;;;9.60;;
12556;SDS011;6344;49.932;8.308;2023-06-22T00:31:26;10.50;;;9.60;;
12556;SDS011;6344;49.932;8.308;2023-06-22T00:33:53;10.67;;;9.87;;
12556;SDS011;6344;49.932;8.308;2023-06-22T00:36:19;10.80;;;9.90;;
12556;SDS011;6344;49.932;8.308;2023-06-22T00:38:46;11.83;;;11.00;;
12556;SDS011;6344;49.932;8.308;2023-06-22T00:41:15;10.50;;;9.70;;
12556;SDS011;6344;49.932;8.308;2023-06-22T00:43:42;12.13;;;9.73;;
12556;SDS011;6344;49.932;8.308;2023-06-22T00:46:09;9.77;;;9.00;;
12556;SDS011;6344;49.932;8.308;2023-06-22T00:48:37;10.67;;;9.87;;
12556;SDS011;6344;49.932;8.308;2023-06-22T00:51:05;10.87;;;9.97;;
12556;SDS011;6344;49.932;8.308;2023-06-22T00:53:31;12.10;;;11.20;;
12556;SDS011;6344;49.932;8.308;2023-06-22T00:55:59;12.30;;;11.40;;
12556;SDS011;6344;49.932;8.308;2023-06-22T00:58:28;11.97;;;11.00;;
12556;SDS011;6344;49.932;8.308;2023-06-22T01:00:55;11.47;;;10.57;;
12556;SDS011;6344;49.932;8.308;2023-06-22T01:03:22;11.57;;;10.67;;
12556;SDS011;6344;49.932;8.308;2023-06-22T01:05:50;13.40;;;12.30;;
12556;SDS011;6344;49.932;8.308;2023-06-22T01:08:23;13.10;;;12.00;;
12556;SDS011;6344;49.932;8.308;2023-06-22T01:10:59;13.30;;;12.13;;
12556;SDS011;6344;49.932;8.308;2023-06-22T01:13:32;12.57;;;11.67;;
12556;SDS011;6344;49.932;8.308;2023-06-22T01:16:05;15.10;;;13.90;;
12556;SDS011;6344;49.932;8.308;2023-06-22T01:18:36;14.40;;;13.23;;
12556;SDS011;6344;49.932;8.308;2023-06-22T01:21:07;14.40;;;13.20;;
12556;SDS011;6344;49.932;8.308;2023-06-22T01:23:42;14.10;;;12.90;;
12556;SDS011;6344;49.932;8.308;2023-06-22T01:26:18;15.30;;;14.10;;
12556;SDS011;6344;49.932;8.308;2023-06-22T01:28:49;16.07;;;14.67;;
12556;SDS011;6344;49.932;8.308;2023-06-22T01:31:19;14.63;;;13.40;;
12556;SDS011;6344;49.932;8.308;2023-06-22T01:33:48;16.40;;;15.10;;
12556;SDS011;6344;49.932;8.308;2023-06-22T01:36:17;15.63;;;14.20;;
12556;SDS011;6344;49.932;8.308;2023-06-22T01:38:44;15.50;;;14.40;;
12556;SDS011;6344;49.932;8.308;2023-06-22T01:41:13;15.00;;;13.80;;
12556;SDS011;6344;49.932;8.308;2023-06-22T01:43:40;16.77;;;15.43;;
12556;SDS011;6344;49.932;8.308;2023-06-22T01:46:08;16.07;;;14.67;;
12556;SDS011;6344;49.932;8.308;2023-06-22T01:48:36;16.03;;;14.83;;
12556;SDS011;6344;49.932;8.308;2023-06-22T01:51:02;17.23;;;15.80;;
12556;SDS011;6344;49.932;8.308;2023-06-22T01:53:29;17.00;;;15.50;;
12556;SDS011;6344;49.932;8.308;2023-06-22T01:55:56;16.73;;;15.33;;
12556;SDS011;6344;49.932;8.308;2023-06-22T01:58:23;17.73;;;16.13;;
12556;SDS011;6344;49.932;8.308;2023-06-22T02:00:53;17.30;;;15.50;;
12556;SDS011;6344;49.932;8.308;2023-06-22T02:03:26;17.17;;;15.63;;
12556;SDS011;6344;49.932;8.308;2023-06-22T02:05:58;17.00;;;15.50;;
12556;SDS011;6344;49.932;8.308;2023-06-22T02:08:30;15.83;;;14.43;;
12556;SDS011;6344;49.932;8.308;2023-06-22T02:10:59;17.67;;;16.20;;
12556;SDS011;6344;49.932;8.308;2023-06-22T02:13:28;16.53;;;15.00;;
12556;SDS011;6344;49.932;8.308;2023-06-22T02:15:55;16.93;;;15.63;;
12556;SDS011;6344;49.932;8.308;2023-06-22T02:18:22;17.67;;;16.30;;
12556;SDS011;6344;49.932;8.308;2023-06-22T02:20:51;17.63;;;16.20;;
12556;SDS011;6344;49.932;8.308;2023-06-22T02:23:18;17.77;;;16.13;;
12556;SDS011;6344;49.932;8.308;2023-06-22T02:25:45;18.77;;;16.87;;
12556;SDS011;6344;49.932;8.308;2023-06-22T02:28:12;17.67;;;16.27;;
12556;SDS011;6344;49.932;8.308;2023-06-22T02:30:38;15.73;;;14.63;;
12556;SDS011;6344;49.932;8.308;2023-06-22T02:33:05;16.63;;;15.30;;
12556;SDS011;6344;49.932;8.308;2023-06-22T02:35:32;16.97;;;15.57;;
12556;SDS011;6344;49.932;8.308;2023-06-22T02:38:02;18.20;;;16.77;;
12556;SDS011;6344;49.932;8.308;2023-06-22T02:40:30;17.30;;;15.80;;
12556;SDS011;6344;49.932;8.308;2023-06-22T02:42:57;15.47;;;14.37;;
12556;SDS011;6344;49.932;8.308;2023-06-22T02:45:27;15.73;;;14.53;;
12556;SDS011;6344;49.932;8.308;2023-06-22T02:47:53;17.83;;;16.47;;
12556;SDS011;6344;49.932;8.308;2023-06-22T02:50:20;17.17;;;15.77;;
12556;SDS011;6344;49.932;8.308;2023-06-22T02:52:47;16.80;;;15.60;;
12556;SDS011;6344;49.932;8.308;2023-06-22T02:55:15;18.37;;;17.00;;
12556;SDS011;6344;49.932;8.308;2023-06-22T02:57:42;16.10;;;14.80;;
12556;SDS011;6344;49.932;8.308;2023-06-22T03:00:10;16.43;;;15.20;;
12556;SDS011;6344;49.932;8.308;2023-06-22T03:02:42;16.57;;;15.27;;
12556;SDS011;6344;49.932;8.308;2023-06-22T03:05:09;16.50;;;15.30;;
12556;SDS011;6344;49.932;8.308;2023-06-22T03:07:38;16.90;;;15.60;;
12556;SDS011;6344;49.932;8.308;2023-06-22T03:10:06;17.00;;;15.70;;
12556;SDS011;6344;49.932;8.308;2023-06-22T03:12:35;16.57;;;15.30;;
12556;SDS011;6344;49.932;8.308;2023-06-22T03:15:02;17.00;;;15.70;;
12556;SDS011;6344;49.932;8.308;2023-06-22T03:17:30;17.37;;;15.70;;
12556;SDS011;6344;49.932;8.308;2023-06-22T03:19:56;18.20;;;16.73;;
12556;SDS011;6344;49.932;8.308;2023-06-22T03:22:23;16.90;;;15.70;;
12556;SDS011;6344;49.932;8.308;2023-06-22T03:24:50;18.30;;;16.80;;
12556;SDS011;6344;49.932;8.308;2023-06-22T03:27:16;16.77;;;15.13;;
12556;SDS011;6344;49.932;8.308;2023-06-22T03:29:44;17.37;;;16.07;;
12556;SDS011;6344;49.932;8.308;2023-06-22T03:32:11;17.93;;;16.63;;
12556;SDS011;6344;49.932;8.308;2023-06-22T03:34:38;18.57;;;17.03;;
12556;SDS011;6344;49.932;8.308;2023-06-22T03:37:04;16.67;;;15.33;;
12556;SDS011;6344;49.932;8.308;2023-06-22T03:39:31;19.20;;;17.47;;
12556;SDS011;6344;49.932;8.308;2023-06-22T03:41:58;18.27;;;16.87;;
12556;SDS011;6344;49.932;8.308;2023-06-22T03:44:25;18.07;;;16.67;;
12556;SDS011;6344;49.932;8.308;2023-06-22T03:46:53;16.53;;;15.23;;
12556;SDS011;6344;49.932;8.308;2023-06-22T03:49:19;17.60;;;16.13;;
12556;SDS011;6344;49.932;8.308;2023-06-22T03:51:46;19.30;;;17.20;;
12556;SDS011;6344;49.932;8.308;2023-06-22T03:54:13;16.83;;;15.63;;
12556;SDS011;6344;49.932;8.308;2023-06-22T03:56:39;18.03;;;16.63;;
12556;SDS011;6344;49.932;8.308;2023-06-22T03:59:06;17.43;;;16.13;;
12556;SDS011;6344;49.932;8.308;2023-06-22T04:01:33;17.87;;;16.33;;
12556;SDS011;6344;49.932;8.308;2023-06-22T04:04:01;16.80;;;15.13;;
12556;SDS011;6344;49.932;8.308;2023-06-22T04:06:27;17.83;;;16.37;;
12556;SDS011;6344;49.932;8.308;2023-06-22T04:08:54;15.50;;;14.30;;
12556;SDS011;6344;49.932;8.308;2023-06-22T04:11:21;16.53;;;15.13;;
12556;SDS011;6344;49.932;8.308;2023-06-22T04:13:47;16.97;;;15.60;;
12556;SDS011;6344;49.932;8.308;2023-06-22T04:16:16;17.10;;;15.80;;
12556;SDS011;6344;49.932;8.308;2023-06-22T04:18:43;17.30;;;16.00;;
12556;SDS011;6344;49.932;8.308;2023-06-22T04:21:11;16.87;;;15.67;;
12556;SDS011;6344;49.932;8.308;2023-06-22T04:23:37;18.03;;;16.53;;
12556;SDS011;6344;49.932;8.308;2023-06-22T04:26:04;18.27;;;16.77;;
12556;SDS011;6344;49.932;8.308;2023-06-22T04:28:30;18.53;;;17.03;;
12556;SDS011;6344;49.932;8.308;2023-06-22T04:31:00;18.83;;;17.33;;
12556;SDS011;6344;49.932;8.308;2023-06-22T04:33:27;17.00;;;15.70;;
12556;SDS011;6344;49.932;8.308;2023-06-22T04:35:54;19.00;;;17.60;;
12556;SDS011;6344;49.932;8.308;2023-06-22T04:38:23;19.17;;;17.43;;
12556;SDS011;6344;49.932;8.308;2023-06-22T04:40:50;19.70;;;18.20;;
12556;SDS011;6344;49.932;8.308;2023-06-22T04:43:18;18.83;;;17.30;;
12556;SDS011;6344;49.932;8.308;2023-06-22T04:45:44;20.10;;;18.50;;
12556;SDS011;6344;49.932;8.308;2023-06-22T04:48:11;19.80;;;17.97;;
12556;SDS011;6344;49.932;8.308;2023-06-22T04:50:40;19.77;;;18.17;;
12556;SDS011;6344;49.932;8.308;2023-06-22T04:53:07;19.40;;;17.90;;
12556;SDS011;6344;49.932;8.308;2023-06-22T04:55:39;18.87;;;17.47;;
12556;SDS011;6344;49.932;8.308;2023-06-22T04:58:10;19.03;;;17.33;;
12556;SDS011;6344;49.932;8.308;2023-06-22T05:00:38;21.13;;;19.30;;
12556;SDS011;6344;49.932;8.308;2023-06-22T05:03:05;20.60;;;18.73;;
12556;SDS011;6344;49.932;8.308;2023-06-22T05:05:36;19.90;;;18.40;;
12556;SDS011;6344;49.932;8.308;2023-06-22T05:08:02;18.93;;;17.50;;
12556;SDS011;6344;49.932;8.308;2023-06-22T05:10:31;19.10;;;17.40;;
12556;SDS011;6344;49.932;8.308;2023-06-22T05:12:59;18.70;;;17.10;;
12556;SDS011;6344;49.932;8.308;2023-06-22T05:15:26;19.73;;;18.03;;
12556;SDS011;6344;49.932;8.308;2023-06-22T05:17:55;20.53;;;18.87;;
12556;SDS011;6344;49.932;8.308;2023-06-22T05:20:23;20.00;;;18.40;;
12556;SDS011;6344;49.932;8.308;2023-06-22T05:22:49;19.40;;;18.00;;
12556;SDS011;6344;49.932;8.308;2023-06-22T05:25:16;19.27;;;17.47;;
12556;SDS011;6344;49.932;8.308;2023-06-22T05:27:43;18.07;;;16.57;;
12556;SDS011;6344;49.932;8.308;2023-06-22T05:30:11;19.37;;;17.77;;
12556;SDS011;6344;49.932;8.308;2023-06-22T05:32:38;17.70;;;16.13;;
12556;SDS011;6344;49.932;8.308;2023-06-22T05:35:05;17.87;;;16.53;;
12556;SDS011;6344;49.932;8.308;2023-06-22T05:37:32;18.40;;;16.70;;
12556;SDS011;6344;49.932;8.308;2023-06-22T05:39:58;18.93;;;17.50;;
12556;SDS011;6344;49.932;8.308;2023-06-22T05:42:25;19.30;;;17.90;;
12556;SDS011;6344;49.932;8.308;2023-06-22T05:44:52;20.73;;;19.17;;
12556;SDS011;6344;49.932;8.308;2023-06-22T05:47:20;19.30;;;17.70;;
12556;SDS011;6344;49.932;8.308;2023-06-22T05:49:47;18.00;;;16.60;;
12556;SDS011;6344;49.932;8.308;2023-06-22T05:52:14;17.03;;;15.83;;
12556;SDS011;6344;49.932;8.308;2023-06-22T05:54:41;20.90;;;19.30;;
12556;SDS011;6344;49.932;8.308;2023-06-22T05:57:08;17.40;;;15.93;;
12556;SDS011;6344;49.932;8.308;2023-06-22T05:59:34;19.13;;;17.73;;
12556;SDS011;6344;49.932;8.308;2023-06-22T06:02:01;18.93;;;17.53;;
12556;SDS011;6344;49.932;8.308;2023-06-22T06:04:29;17.37;;;16.03;;
12556;SDS011;6344;49.932;8.308;2023-06-22T06:06:56;18.53;;;17.20;;
12556;SDS011;6344;49.932;8.308;2023-06-22T06:09:22;18.03;;;16.63;;
12556;SDS011;6344;49.932;8.308;2023-06-22T06:11:49;19.50;;;18.10;;
12556;SDS011;6344;49.932;8.308;2023-06-22T06:14:16;19.20;;;17.80;;
12556;SDS011;6344;49.932;8.308;2023-06-22T06:16:43;17.47;;;15.73;;
12556;SDS011;6344;49.932;8.308;2023-06-22T06:19:09;17.17;;;15.77;;
12556;SDS011;6344;49.932;8.308;2023-06-22T06:21:37;18.50;;;17.20;;
12556;SDS011;6344;49.932;8.308;2023-06-22T06:24:04;18.77;;;17.37;;
12556;SDS011;6344;49.932;8.308;2023-06-22T06:26:31;17.30;;;16.10;;
12556;SDS011;6344;49.932;8.308;2023-06-22T06:28:58;16.93;;;15.83;;
12556;SDS011;6344;49.932;8.308;2023-06-22T06:31:27;17.23;;;15.80;;
12556;SDS011;6344;49.932;8.308;2023-06-22T06:33:53;19.20;;;17.70;;
12556;SDS011;6344;49.932;8.308;2023-06-22T06:36:20;17.33;;;16.03;;
12556;SDS011;6344;49.932;8.308;2023-06-22T06:38:48;15.20;;;14.20;;
12556;SDS011;6344;49.932;8.308;2023-06-22T06:41:15;16.37;;;15.17;;
12556;SDS011;6344;49.932;8.308;2023-06-22T06:43:42;15.07;;;13.87;;
12556;SDS011;6344;49.932;8.308;2023-06-22T06:46:08;15.03;;;14.03;;
12556;SDS011;6344;49.932;8.308;2023-06-22T06:48:35;15.43;;;14.23;;
12556;SDS011;6344;49.932;8.308;2023-06-22T06:51:02;16.47;;;15.17;;
12556;SDS011;6344;49.932;8.308;2023-06-22T06:53:29;16.30;;;15.10;;
12556;SDS011;6344;49.932;8.308;2023-06-22T06:55:57;16.07;;;14.80;;
12556;SDS011;6344;49.932;8.308;2023-06-22T06:58:23;17.67;;;16.47;;
12556;SDS011;6344;49.932;8.308;2023-06-22T07:00:50;17.27;;;15.83;;
12556;SDS011;6344;49.932;8.308;2023-06-22T07:03:16;15.97;;;14.83;;
12556;SDS011;6344;49.932;8.308;2023-06-22T07:05:43;14.67;;;13.63;;
12556;SDS011;6344;49.932;8.308;2023-06-22T07:08:10;15.60;;;14.67;;
12556;SDS011;6344;49.932;8.308;2023-06-22T07:10:36;17.57;;;16.27;;
12556;SDS011;6344;49.932;8.308;2023-06-22T07:13:04;15.03;;;14.03;;
12556;SDS011;6344;49.932;8.308;2023-06-22T07:15:31;14.27;;;13.20;;
12556;SDS011;6344;49.932;8.308;2023-06-22T07:17:58;14.80;;;13.70;;
12556;SDS011;6344;49.932;8.308;2023-06-22T07:20:24;14.50;;;13.40;;
12556;SDS011;6344;49.932;8.308;2023-06-22T07:22:51;17.50;;;16.20;;
12556;SDS011;6344;49.932;8.308;2023-06-22T07:25:18;15.10;;;14.00;;
12556;SDS011;6344;49.932;8.308;2023-06-22T07:27:45;16.40;;;15.10;;
12556;SDS011;6344;49.932;8.308;2023-06-22T07:30:23;15.27;;;14.27;;
12556;SDS011;6344;49.932;8.308;2023-06-22T07:32:50;15.10;;;14.07;;
12556;SDS011;6344;49.932;8.308;2023-06-22T07:35:17;16.90;;;15.80;;
12556;SDS011;6344;49.932;8.308;2023-06-22T07:37:44;15.60;;;14.60;;
12556;SDS011;6344;49.932;8.308;2023-06-22T07:40:11;16.10;;;15.00;;
12556;SDS011;6344;49.932;8.308;2023-06-22T07:42:38;17.43;;;15.90;;
12556;SDS011;6344;49.932;8.308;2023-06-22T07:45:05;16.10;;;15.00;;
12556;SDS011;6344;49.932;8.308;2023-06-22T07:47:35;15.20;;;14.00;;
12556;SDS011;6344;49.932;8.308;2023-06-22T07:50:02;16.20;;;15.03;;
12556;SDS011;6344;49.932;8.308;2023-06-22T07:52:29;16.47;;;15.27;;
12556;SDS011;6344;49.932;8.308;2023-06-22T07:54:56;16.33;;;15.23;;
12556;SDS011;6344;49.932;8.308;2023-06-22T07:57:23;16.97;;;15.73;;
12556;SDS011;6344;49.932;8.308;2023-06-22T07:59:57;16.00;;;15.00;;
12556;SDS011;6344;49.932;8.308;2023-06-22T08:02:23;15.93;;;14.93;;
12556;SDS011;6344;49.932;8.308;2023-06-22T08:04:51;16.87;;;15.67;;
12556;SDS011;6344;49.932;8.308;2023-06-22T08:07:18;15.50;;;14.50;;
12556;SDS011;6344;49.932;8.308;2023-06-22T08:09:45;16.00;;;15.00;;
12556;SDS011;6344;49.932;8.308;2023-06-22T08:12:13;16.97;;;15.90;;
12556;SDS011;6344;49.932;8.308;2023-06-22T08:14:41;17.00;;;15.90;;
12556;SDS011;6344;49.932;8.308;2023-06-22T08:17:08;16.40;;;15.30;;
12556;SDS011;6344;49.932;8.308;2023-06-22T08:19:36;16.50;;;15.40;;
12556;SDS011;6344;49.932;8.308;2023-06-22T08:22:05;16.47;;;15.30;;
12556;SDS011;6344;49.932;8.308;2023-06-22T08:24:32;14.63;;;13.57;;
12556;SDS011;6344;49.932;8.308;2023-06-22T08:26:58;15.80;;;14.70;;
12556;SDS011;6344;49.932;8.308;2023-06-22T08:29:25;17.90;;;16.60;;
12556;SDS011;6344;49.932;8.308;2023-06-22T08:31:52;15.03;;;14.03;;
12556;SDS011;6344;49.932;8.308;2023-06-22T08:34:18;16.40;;;15.30;;
12556;SDS011;6344;49.932;8.308;2023-06-22T08:36:48;16.10;;;15.10;;
12556;SDS011;6344;49.932;8.308;2023-06-22T08:39:17;16.87;;;15.57;;
12556;SDS011;6344;49.932;8.308;2023-06-22T08:41:44;16.10;;;14.97;;
12556;SDS011;6344;49.932;8.308;2023-06-22T08:44:11;16.33;;;15.23;;
12556;SDS011;6344;49.932;8.308;2023-06-22T08:46:38;15.80;;;14.73;;
12556;SDS011;6344;49.932;8.308;2023-06-22T08:49:06;18.13;;;17.03;;
12556;SDS011;6344;49.932;8.308;2023-06-22T08:51:34;16.93;;;15.90;;
12556;SDS011;6344;49.932;8.308;2023-06-22T08:54:01;16.93;;;15.80;;
12556;SDS011;6344;49.932;8.308;2023-06-22T08:56:29;15.03;;;14.13;;
12556;SDS011;6344;49.932;8.308;2023-06-22T08:58:56;16.43;;;15.07;;
12556;SDS011;6344;49.932;8.308;2023-06-22T09:01:22;16.87;;;15.53;;
12556;SDS011;6344;49.932;8.308;2023-06-22T09:03:49;17.33;;;15.80;;
12556;SDS011;6344;49.932;8.308;2023-06-22T09:06:20;15.47;;;14.37;;
12556;SDS011;6344;49.932;8.308;2023-06-22T09:08:46;17.83;;;16.67;;
12556;SDS011;6344;49.932;8.308;2023-06-22T09:11:14;16.60;;;15.60;;
12556;SDS011;6344;49.932;8.308;2023-06-22T09:13:42;15.13;;;14.23;;
12556;SDS011;6344;49.932;8.308;2023-06-22T09:16:08;16.00;;;14.90;;
12556;SDS011;6344;49.932;8.308;2023-06-22T09:18:35;14.93;;;13.87;;
12556;SDS011;6344;49.932;8.308;2023-06-22T09:21:02;16.13;;;15.20;;
12556;SDS011;6344;49.932;8.308;2023-06-22T09:23:28;15.13;;;14.13;;
12556;SDS011;6344;49.932;8.308;2023-06-22T09:25:55;15.47;;;14.57;;
12556;SDS011;6344;49.932;8.308;2023-06-22T09:28:22;13.93;;;13.20;;
12556;SDS011;6344;49.932;8.308;2023-06-22T09:30:50;14.20;;;13.40;;
12556;SDS011;6344;49.932;8.308;2023-06-22T09:33:16;15.40;;;14.30;;
12556;SDS011;6344;49.932;8.308;2023-06-22T09:35:44;14.10;;;13.20;;
12556;SDS011;6344;49.932;8.308;2023-06-22T09:38:11;14.10;;;13.23;;
12556;SDS011;6344;49.932;8.308;2023-06-22T09:40:37;14.67;;;13.77;;
12556;SDS011;6344;49.932;8.308;2023-06-22T09:43:05;14.90;;;13.90;;
12556;SDS011;6344;49.932;8.308;2023-06-22T09:45:31;14.00;;;13.10;;
12556;SDS011;6344;49.932;8.308;2023-06-22T09:47:59;13.93;;;12.93;;
12556;SDS011;6344;49.932;8.308;2023-06-22T09:50:26;14.50;;;13.47;;
12556;SDS011;6344;49.932;8.308;2023-06-22T09:52:52;14.20;;;13.23;;
12556;SDS011;6344;49.932;8.308;2023-06-22T09:55:20;15.30;;;14.17;;
12556;SDS011;6344;49.932;8.308;2023-06-22T09:57:47;13.47;;;12.57;;
12556;SDS011;6344;49.932;8.308;2023-06-22T10:00:15;12.97;;;12.27;;
12556;SDS011;6344;49.932;8.308;2023-06-22T10:02:44;13.03;;;12.23;;
12556;SDS011;6344;49.932;8.308;2023-06-22T10:05:12;13.70;;;12.63;;
12556;SDS011;6344;49.932;8.308;2023-06-22T10:07:38;13.33;;;12.53;;
12556;SDS011;6344;49.932;8.308;2023-06-22T10:10:08;14.13;;;13.23;;
12556;SDS011;6344;49.932;8.308;2023-06-22T10:12:35;12.53;;;11.73;;
12556;SDS011;6344;49.932;8.308;2023-06-22T10:15:02;13.70;;;12.90;;
12556;SDS011;6344;49.932;8.308;2023-06-22T10:17:29;14.47;;;13.57;;
12556;SDS011;6344;49.932;8.308;2023-06-22T10:19:56;14.00;;;13.00;;
12556;SDS011;6344;49.932;8.308;2023-06-22T10:22:24;14.10;;;13.00;;
12556;SDS011;6344;49.932;8.308;2023-06-22T10:24:50;14.40;;;13.50;;
12556;SDS011;6344;49.932;8.308;2023-06-22T10:27:17;13.90;;;12.90;;
12556;SDS011;6344;49.932;8.308;2023-06-22T10:29:44;14.13;;;13.03;;
12556;SDS011;6344;49.932;8.308;2023-06-22T10:32:10;13.60;;;12.60;;
12556;SDS011;6344;49.932;8.308;2023-06-22T10:34:37;12.33;;;11.53;;
12556;SDS011;6344;49.932;8.308;2023-06-22T10:37:04;13.30;;;12.50;;
12556;SDS011;6344;49.932;8.308;2023-06-22T10:39:32;13.13;;;12.23;;
12556;SDS011;6344;49.932;8.308;2023-06-22T10:41:59;13.53;;;12.53;;
12556;SDS011;6344;49.932;8.308;2023-06-22T10:44:25;12.97;;;12.20;;
12556;SDS011;6344;49.932;8.308;2023-06-22T10:46:52;12.80;;;12.00;;
12556;SDS011;6344;49.932;8.308;2023-06-22T10:49:19;14.73;;;13.53;;
12556;SDS011;6344;49.932;8.308;2023-06-22T10:51:45;13.17;;;12.07;;
12556;SDS011;6344;49.932;8.308;2023-06-22T10:54:12;12.60;;;11.80;;
12556;SDS011;6344;49.932;8.308;2023-06-22T10:56:40;13.33;;;12.50;;
12556;SDS011;6344;49.932;8.308;2023-06-22T10:59:07;13.33;;;12.63;;
12556;SDS011;6344;49.932;8.308;2023-06-22T11:01:34;12.43;;;11.73;;
12556;SDS011;6344;49.932;8.308;2023-06-22T11:10:15;13.97;;;13.10;;
12556;SDS011;6344;49.932;8.308;2023-06-22T11:12:43;12.77;;;11.60;;
12556;SDS011;6344;49.932;8.308;2023-06-22T11:15:10;12.03;;;11.30;;
12556;SDS011;6344;49.932;8.308;2023-06-22T11:17:37;12.53;;;11.63;;
12556;SDS011;6344;49.932;8.308;2023-06-22T11:20:04;13.57;;;12.67;;
12556;SDS011;6344;49.932;8.308;2023-06-22T11:22:35;12.17;;;11.40;;
12556;SDS011;6344;49.932;8.308;2023-06-22T11:25:02;13.10;;;12.10;;
12556;SDS011;6344;49.932;8.308;2023-06-22T11:27:30;12.87;;;11.80;;
12556;SDS011;6344;49.932;8.308;2023-06-22T11:29:58;11.70;;;10.80;;
12556;SDS011;6344;49.932;8.308;2023-06-22T11:32:24;12.40;;;11.70;;
12556;SDS011;6344;49.932;8.308;2023-06-22T11:34:51;12.73;;;11.93;;
12556;SDS011;6344;49.932;8.308;2023-06-22T11:37:18;12.87;;;11.87;;
12556;SDS011;6344;49.932;8.308;2023-06-22T11:39:44;12.13;;;11.43;;
12556;SDS011;6344;49.932;8.308;2023-06-22T11:42:11;13.03;;;12.00;;
12556;SDS011;6344;49.932;8.308;2023-06-22T11:44:38;13.97;;;12.83;;
12556;SDS011;6344;49.932;8.308;2023-06-22T11:47:06;12.73;;;11.63;;
12556;SDS011;6344;49.932;8.308;2023-06-22T11:49:33;13.17;;;12.40;;
12556;SDS011;6344;49.932;8.308;2023-06-22T11:51:59;13.33;;;12.53;;
12556;SDS011;6344;49.932;8.308;2023-06-22T11:54:26;13.40;;;12.57;;
12556;SDS011;6344;49.932;8.308;2023-06-22T11:56:53;12.93;;;12.23;;
12556;SDS011;6344;49.932;8.308;2023-06-22T11:59:20;12.60;;;11.90;;
12556;SDS011;6344;49.932;8.308;2023-06-22T12:01:47;14.53;;;13.53;;
12556;SDS011;6344;49.932;8.308;2023-06-22T12:04:16;14.17;;;13.27;;
12556;SDS011;6344;49.932;8.308;2023-06-22T12:06:43;13.37;;;12.47;;
12556;SDS011;6344;49.932;8.308;2023-06-22T12:09:10;13.50;;;12.60;;
12556;SDS011;6344;49.932;8.308;2023-06-22T12:11:38;14.03;;;13.00;;
12556;SDS011;6344;49.932;8.308;2023-06-22T12:14:05;14.10;;;13.30;;
12556;SDS011;6344;49.932;8.308;2023-06-22T12:16:32;14.27;;;13.37;;
12556;SDS011;6344;49.932;8.308;2023-06-22T12:18:58;13.53;;;12.53;;
12556;SDS011;6344;49.932;8.308;2023-06-22T12:21:26;12.80;;;11.90;;
12556;SDS011;6344;49.932;8.308;2023-06-22T12:23:54;14.20;;;13.33;;
12556;SDS011;6344;49.932;8.308;2023-06-22T12:26:21;13.30;;;12.40;;
12556;SDS011;6344;49.932;8.308;2023-06-22T12:28:47;13.13;;;12.13;;
12556;SDS011;6344;49.932;8.308;2023-06-22T12:31:14;13.20;;;12.30;;
12556;SDS011;6344;49.932;8.308;2023-06-22T12:33:41;13.50;;;12.70;;
12556;SDS011;6344;49.932;8.308;2023-06-22T12:36:07;14.20;;;13.30;;
12556;SDS011;6344;49.932;8.308;2023-06-22T12:38:35;13.97;;;12.87;;
12556;SDS011;6344;49.932;8.308;2023-06-22T12:41:02;13.03;;;12.13;;
12556;SDS011;6344;49.932;8.308;2023-06-22T12:43:29;14.23;;;13.33;;
12556;SDS011;6344;49.932;8.308;2023-06-22T12:45:55;12.73;;;12.03;;
12556;SDS011;6344;49.932;8.308;2023-06-22T12:48:22;13.93;;;12.83;;
12556;SDS011;6344;49.932;8.308;2023-06-22T12:50:50;12.60;;;11.90;;
12556;SDS011;6344;49.932;8.308;2023-06-22T12:53:16;12.80;;;12.10;;
12556;SDS011;6344;49.932;8.308;2023-06-22T12:55:44;13.50;;;12.60;;
12556;SDS011;6344;49.932;8.308;2023-06-22T12:58:11;12.80;;;12.00;;
12556;SDS011;6344;49.932;8.308;2023-06-22T13:00:38;14.00;;;12.67;;
12556;SDS011;6344;49.932;8.308;2023-06-22T13:03:05;12.43;;;11.63;;
12556;SDS011;6344;49.932;8.308;2023-06-22T13:05:31;11.30;;;10.50;;
12556;SDS011;6344;49.932;8.308;2023-06-22T13:07:59;14.57;;;13.37;;
12556;SDS011;6344;49.932;8.308;2023-06-22T13:10:26;13.23;;;12.17;;
12556;SDS011;6344;49.932;8.308;2023-06-22T13:12:54;13.13;;;12.33;;
12556;SDS011;6344;49.932;8.308;2023-06-22T13:15:25;11.83;;;11.13;;
12556;SDS011;6344;49.932;8.308;2023-06-22T13:17:52;13.20;;;12.10;;
12556;SDS011;6344;49.932;8.308;2023-06-22T13:20:19;13.70;;;12.70;;
12556;SDS011;6344;49.932;8.308;2023-06-22T13:22:45;13.37;;;12.30;;
12556;SDS011;6344;49.932;8.308;2023-06-22T13:25:12;12.33;;;11.37;;
12556;SDS011;6344;49.932;8.308;2023-06-22T13:27:44;13.67;;;12.77;;
12556;SDS011;6344;49.932;8.308;2023-06-22T13:30:12;13.20;;;12.10;;
12556;SDS011;6344;49.932;8.308;2023-06-22T13:32:39;11.70;;;10.50;;
12556;SDS011;6344;49.932;8.308;2023-06-22T13:35:07;11.40;;;10.30;;
12556;SDS011;6344;49.932;8.308;2023-06-22T13:37:34;10.30;;;9.50;;
12556;SDS011;6344;49.932;8.308;2023-06-22T13:40:00;12.70;;;10.07;;
12556;SDS011;6344;49.932;8.308;2023-06-22T13:42:30;10.10;;;9.30;;
12556;SDS011;6344;49.932;8.308;2023-06-22T13:44:56;10.13;;;9.07;;
12556;SDS011;6344;49.932;8.308;2023-06-22T13:47:24;10.07;;;9.17;;
12556;SDS011;6344;49.932;8.308;2023-06-22T13:49:51;9.87;;;9.07;;
12556;SDS011;6344;49.932;8.308;2023-06-22T13:52:18;10.77;;;9.60;;
12556;SDS011;6344;49.932;8.308;2023-06-22T13:54:44;12.90;;;9.17;;
12556;SDS011;6344;49.932;8.308;2023-06-22T13:57:11;8.60;;;7.80;;
12556;SDS011;6344;49.932;8.308;2023-06-22T13:59:38;9.87;;;8.87;;
12556;SDS011;6344;49.932;8.308;2023-06-22T14:02:04;8.33;;;7.63;;
12556;SDS011;6344;49.932;8.308;2023-06-22T14:04:33;7.83;;;7.10;;
12556;SDS011;6344;49.932;8.308;2023-06-22T14:06:59;8.40;;;7.80;;
12556;SDS011;6344;49.932;8.308;2023-06-22T14:09:26;11.87;;;8.60;;
12556;SDS011;6344;49.932;8.308;2023-06-22T14:11:53;8.67;;;7.90;;
12556;SDS011;6344;49.932;8.308;2023-06-22T14:14:20;9.30;;;8.50;;
12556;SDS011;6344;49.932;8.308;2023-06-22T14:16:47;9.80;;;9.13;;
12556;SDS011;6344;49.932;8.308;2023-06-22T14:19:14;13.00;;;8.70;;
12556;SDS011;6344;49.932;8.308;2023-06-22T14:21:44;8.93;;;8.13;;
12556;SDS011;6344;49.932;8.308;2023-06-22T14:24:10;9.27;;;8.30;;
12556;SDS011;6344;49.932;8.308;2023-06-22T14:26:37;10.50;;;8.97;;
12556;SDS011;6344;49.932;8.308;2023-06-22T14:29:04;10.23;;;9.30;;
12556;SDS011;6344;49.932;8.308;2023-06-22T14:31:30;9.30;;;8.50;;
12556;SDS011;6344;49.932;8.308;2023-06-22T14:33:57;9.57;;;8.80;;
12556;SDS011;6344;49.932;8.308;2023-06-22T14:36:24;10.60;;;9.53;;
12556;SDS011;6344;49.932;8.308;2023-06-22T14:38:52;8.90;;;8.10;;
12556;SDS011;6344;49.932;8.308;2023-06-22T14:41:19;10.77;;;9.47;;
12556;SDS011;6344;49.932;8.308;2023-06-22T14:43:46;10.80;;;9.80;;
12556;SDS011;6344;49.932;8.308;2023-06-22T14:46:13;9.77;;;8.77;;